Time;durP1;ratioP1;P1;durP2;ratioP2;P2;SDS_P1;SDS_P2;PMS_P1;PMS_P2;Temp;Humidity;BMP_temperature;BMP_pressure;BME280_temperature;BME280_humidity;BME280_pressure;Samples;Min_cycle;Max_cycle;Signal;HPM_P1;HPM_P2
2021/04/30 00:01:14;;;;;;;6.75;5.95;;;;;;;;;;3576699;40;20703;-72
2021/04/30 00:03:41;;;;;;;6.53;5.70;;;;;;;;;;3577438;40;20418;-72
2021/04/30 00:06:07;;;;;;;6.55;5.88;;;;;;;;;;3577670;40;20443;-72
2021/04/30 00:08:33;;;;;;;7.00;5.85;;;;;;;;;;3572534;40;20409;-72
2021/04/30 00:11:01;;;;;;;6.60;5.80;;;;;;;;;;3574806;40;20396;-72
2021/04/30 00:13:27;;;;;;;6.82;5.57;;;;;;;;;;3574681;40;20398;-72
2021/04/30 00:15:53;;;;;;;5.82;5.03;;;;;;;;;;3573909;40;20368;-72
2021/04/30 00:18:19;;;;;;;5.88;5.28;;;;;;;;;;3574246;40;20378;-72
2021/04/30 00:20:56;;;;;;;5.80;5.20;;;;;;;;;;3565576;40;20404;-72
2021/04/30 00:23:26;;;;;;;6.40;5.30;;;;;;;;;;3577812;40;20618;-72
2021/04/30 00:25:53;;;;;;;6.03;5.43;;;;;;;;;;3577132;40;20379;-72
2021/04/30 00:28:21;;;;;;;5.70;5.05;;;;;;;;;;3577164;40;20414;-72
2021/04/30 00:30:47;;;;;;;5.50;4.72;;;;;;;;;;3571325;40;20378;-72
2021/04/30 00:33:14;;;;;;;5.73;4.70;;;;;;;;;;3574790;40;20424;-72
2021/04/30 00:35:41;;;;;;;5.82;4.55;;;;;;;;;;3573431;40;20671;-72
2021/04/30 00:38:07;;;;;;;5.82;4.70;;;;;;;;;;3575674;40;20391;-71
2021/04/30 00:40:34;;;;;;;4.63;4.18;;;;;;;;;;3568411;40;20395;-72
2021/04/30 00:43:00;;;;;;;4.13;3.72;;;;;;;;;;3567392;40;20406;-71
2021/04/30 00:45:27;;;;;;;4.50;4.05;;;;;;;;;;3573769;40;20406;-77
2021/04/30 00:47:54;;;;;;;5.85;4.20;;;;;;;;;;3574987;40;20454;-71
2021/04/30 00:50:21;;;;;;;4.32;3.92;;;;;;;;;;3571571;40;20368;-71
2021/04/30 00:52:47;;;;;;;5.87;3.83;;;;;;;;;;3571859;40;20626;-72
2021/04/30 00:55:14;;;;;;;3.83;3.53;;;;;;;;;;3567709;40;20396;-72
2021/04/30 00:57:43;;;;;;;3.93;3.43;;;;;;;;;;3576897;40;20676;-72
2021/04/30 01:00:10;;;;;;;3.95;3.50;;;;;;;;;;3577449;40;20399;-71
2021/04/30 01:02:39;;;;;;;3.70;3.30;;;;;;;;;;3569943;40;20405;-72
2021/04/30 01:05:06;;;;;;;3.72;3.33;;;;;;;;;;3568571;40;20420;-71
2021/04/30 01:07:32;;;;;;;4.00;3.20;;;;;;;;;;3575483;40;20391;-72
2021/04/30 01:09:59;;;;;;;3.47;2.97;;;;;;;;;;3568758;40;20425;-71
2021/04/30 01:12:25;;;;;;;3.00;2.70;;;;;;;;;;3575609;40;20360;-72
2021/04/30 01:14:51;;;;;;;3.85;3.45;;;;;;;;;;3576897;40;20396;-71
2021/04/30 01:17:17;;;;;;;3.17;2.88;;;;;;;;;;3575607;40;20384;-71
2021/04/30 01:19:45;;;;;;;4.30;2.92;;;;;;;;;;3577018;40;20383;-71
2021/04/30 01:22:12;;;;;;;2.80;2.60;;;;;;;;;;3577056;40;20545;-72
2021/04/30 01:24:38;;;;;;;2.88;2.65;;;;;;;;;;3573696;40;20392;-72
2021/04/30 01:27:05;;;;;;;2.93;2.50;;;;;;;;;;3577038;40;20854;-71
2021/04/30 01:29:31;;;;;;;2.78;2.50;;;;;;;;;;3576781;40;20726;-72
2021/04/30 01:31:57;;;;;;;3.22;2.78;;;;;;;;;;3576935;40;20432;-71
2021/04/30 01:34:23;;;;;;;3.30;2.60;;;;;;;;;;3576600;40;20508;-72
2021/04/30 01:36:50;;;;;;;3.40;2.80;;;;;;;;;;3575812;40;20391;-71
2021/04/30 01:39:17;;;;;;;2.97;2.65;;;;;;;;;;3571935;40;20386;-72
2021/04/30 01:41:43;;;;;;;3.03;2.72;;;;;;;;;;3574760;40;20626;-71
2021/04/30 01:44:10;;;;;;;4.00;3.10;;;;;;;;;;3573006;40;20545;-71
2021/04/30 01:46:37;;;;;;;3.47;3.17;;;;;;;;;;3573711;40;20384;-71
2021/04/30 01:49:03;;;;;;;4.00;3.60;;;;;;;;;;3574112;40;20377;-71
2021/04/30 01:51:30;;;;;;;3.80;3.40;;;;;;;;;;3573156;40;20388;-72
2021/04/30 01:53:56;;;;;;;4.77;4.10;;;;;;;;;;3567775;40;20385;-71
2021/04/30 01:56:23;;;;;;;4.93;4.10;;;;;;;;;;3571405;40;20383;-71
2021/04/30 01:58:49;;;;;;;5.23;4.73;;;;;;;;;;3575732;40;20470;-71
2021/04/30 02:01:16;;;;;;;6.45;5.82;;;;;;;;;;3563451;40;20405;-71
2021/04/30 02:03:43;;;;;;;5.73;5.13;;;;;;;;;;3573956;40;20404;-71
2021/04/30 02:06:09;;;;;;;7.78;6.40;;;;;;;;;;3559099;40;20422;-71
2021/04/30 02:08:35;;;;;;;6.47;5.88;;;;;;;;;;3566710;40;20390;-72
2021/04/30 02:11:01;;;;;;;5.78;5.18;;;;;;;;;;3560036;40;20386;-71
2021/04/30 02:13:29;;;;;;;5.65;5.00;;;;;;;;;;3561515;40;20454;-72
2021/04/30 02:15:55;;;;;;;5.38;4.88;;;;;;;;;;3556332;40;20452;-71
2021/04/30 02:18:22;;;;;;;5.05;4.53;;;;;;;;;;3566723;40;20848;-72
2021/04/30 02:20:48;;;;;;;6.40;5.38;;;;;;;;;;3566184;40;20381;-71
2021/04/30 02:23:15;;;;;;;4.30;3.90;;;;;;;;;;3566628;40;20382;-72
2021/04/30 02:25:41;;;;;;;5.07;4.60;;;;;;;;;;3566545;40;20354;-71
2021/04/30 02:28:08;;;;;;;5.55;4.63;;;;;;;;;;3566300;40;20755;-72
2021/04/30 02:30:36;;;;;;;4.78;4.30;;;;;;;;;;3566677;40;20372;-71
2021/04/30 02:33:03;;;;;;;5.80;4.55;;;;;;;;;;3566283;40;20771;-72
2021/04/30 02:35:30;;;;;;;4.87;4.47;;;;;;;;;;3566540;40;20390;-72
2021/04/30 02:37:56;;;;;;;4.93;4.47;;;;;;;;;;3566334;40;20927;-71
2021/04/30 02:40:25;;;;;;;5.18;4.75;;;;;;;;;;3565475;40;20393;-72
2021/04/30 02:42:52;;;;;;;5.95;5.00;;;;;;;;;;3566933;40;20381;-72
2021/04/30 02:45:19;;;;;;;4.70;4.20;;;;;;;;;;3557723;40;20383;-72
2021/04/30 02:47:47;;;;;;;5.40;4.90;;;;;;;;;;3561354;40;20381;-72
2021/04/30 02:50:14;;;;;;;5.55;5.05;;;;;;;;;;3556981;40;20417;-72
2021/04/30 02:52:41;;;;;;;6.40;4.40;;;;;;;;;;3566497;40;20484;-72
2021/04/30 02:55:07;;;;;;;4.72;4.32;;;;;;;;;;3559683;40;20775;-72
2021/04/30 02:57:33;;;;;;;4.25;3.85;;;;;;;;;;3563408;40;20395;-72
2021/04/30 03:00:00;;;;;;;4.53;4.13;;;;;;;;;;3562447;40;20378;-69
2021/04/30 03:02:26;;;;;;;5.28;4.78;;;;;;;;;;3566592;40;20377;-72
2021/04/30 03:04:53;;;;;;;4.77;4.03;;;;;;;;;;3564028;40;20862;-72
2021/04/30 03:07:20;;;;;;;5.07;4.40;;;;;;;;;;3573427;40;20369;-71
2021/04/30 03:09:46;;;;;;;4.50;4.10;;;;;;;;;;3566297;40;20375;-71
2021/04/30 03:12:12;;;;;;;4.45;3.83;;;;;;;;;;3569509;40;20493;-71
2021/04/30 03:14:38;;;;;;;4.68;4.28;;;;;;;;;;3573288;40;20390;-71
2021/04/30 03:17:04;;;;;;;5.57;4.50;;;;;;;;;;3572751;40;20371;-71
2021/04/30 03:19:31;;;;;;;6.13;5.45;;;;;;;;;;3575866;40;20375;-71
2021/04/30 03:21:58;;;;;;;5.63;4.75;;;;;;;;;;3566942;40;20467;-71
2021/04/30 03:24:24;;;;;;;3.33;3.03;;;;;;;;;;3574933;40;20414;-72
2021/04/30 03:26:50;;;;;;;3.13;2.80;;;;;;;;;;3576146;40;20396;-71
2021/04/30 03:29:16;;;;;;;2.55;2.35;;;;;;;;;;3575957;40;20379;-71
2021/04/30 03:31:43;;;;;;;2.50;2.30;;;;;;;;;;3576022;40;20387;-70
2021/04/30 03:34:10;;;;;;;2.33;2.13;;;;;;;;;;3576392;40;20360;-71
2021/04/30 03:36:37;;;;;;;2.45;2.03;;;;;;;;;;3576116;40;20428;-71
2021/04/30 03:39:05;;;;;;;2.00;1.80;;;;;;;;;;3572186;40;20643;-71
2021/04/30 03:41:31;;;;;;;3.35;1.77;;;;;;;;;;3556669;40;20768;-71
2021/04/30 03:43:57;;;;;;;2.35;1.95;;;;;;;;;;3569162;40;20392;-71
2021/04/30 03:46:23;;;;;;;2.40;1.70;;;;;;;;;;3571261;40;20661;-71
2021/04/30 03:48:50;;;;;;;2.20;1.90;;;;;;;;;;3568939;40;20391;-71
2021/04/30 03:51:16;;;;;;;1.75;1.65;;;;;;;;;;3575084;40;20400;-71
2021/04/30 03:53:42;;;;;;;1.70;1.53;;;;;;;;;;3569054;40;20378;-71
2021/04/30 03:56:09;;;;;;;1.67;1.58;;;;;;;;;;3572075;40;20378;-71
2021/04/30 03:58:35;;;;;;;2.22;1.60;;;;;;;;;;3572713;40;20383;-71
2021/04/30 04:01:02;;;;;;;1.80;1.70;;;;;;;;;;3566806;40;20365;-71
2021/04/30 04:03:28;;;;;;;1.92;1.75;;;;;;;;;;3566040;40;20413;-71
2021/04/30 04:05:54;;;;;;;2.20;2.00;;;;;;;;;;3574771;40;20755;-71
2021/04/30 04:08:20;;;;;;;1.90;1.75;;;;;;;;;;3572534;40;20843;-70
2021/04/30 04:10:47;;;;;;;1.90;1.63;;;;;;;;;;3574338;40;20376;-71
2021/04/30 04:13:17;;;;;;;1.98;1.77;;;;;;;;;;3571019;40;20384;-71
2021/04/30 04:15:43;;;;;;;1.95;1.75;;;;;;;;;;3573040;40;20376;-71
2021/04/30 04:18:10;;;;;;;2.05;1.85;;;;;;;;;;3569868;40;20764;-71
2021/04/30 04:20:36;;;;;;;1.80;1.67;;;;;;;;;;3577419;40;20383;-72
2021/04/30 04:23:03;;;;;;;2.67;2.10;;;;;;;;;;3577392;40;20465;-71
2021/04/30 04:25:29;;;;;;;3.25;1.95;;;;;;;;;;3577016;40;20380;-71
2021/04/30 04:27:55;;;;;;;2.88;2.00;;;;;;;;;;3575915;40;20400;-71
2021/04/30 04:30:23;;;;;;;1.80;1.70;;;;;;;;;;3577347;40;20753;-71
2021/04/30 04:32:49;;;;;;;2.40;2.20;;;;;;;;;;3574592;40;20489;-71
2021/04/30 04:35:15;;;;;;;2.67;2.10;;;;;;;;;;3571637;40;20382;-71
2021/04/30 04:37:41;;;;;;;3.15;2.10;;;;;;;;;;3575687;40;20400;-71
2021/04/30 04:40:08;;;;;;;2.80;2.08;;;;;;;;;;3560998;40;20533;-71
2021/04/30 04:42:35;;;;;;;2.88;1.90;;;;;;;;;;3572893;40;20393;-71
2021/04/30 04:45:01;;;;;;;2.50;2.17;;;;;;;;;;3567076;40;20401;-71
2021/04/30 04:47:28;;;;;;;2.20;2.00;;;;;;;;;;3567292;40;20751;-71
2021/04/30 04:49:54;;;;;;;2.40;2.20;;;;;;;;;;3567260;40;20378;-71
2021/04/30 04:52:20;;;;;;;2.75;2.42;;;;;;;;;;3574503;40;20386;-71
2021/04/30 04:54:47;;;;;;;2.40;1.98;;;;;;;;;;3572943;40;20383;-71
2021/04/30 04:57:13;;;;;;;2.70;2.35;;;;;;;;;;3576019;40;20799;-72
2021/04/30 04:59:39;;;;;;;2.90;2.67;;;;;;;;;;3572987;40;20460;-71
2021/04/30 05:02:05;;;;;;;3.78;3.47;;;;;;;;;;3550021;40;20406;-71
2021/04/30 05:04:32;;;;;;;4.10;3.70;;;;;;;;;;3570536;40;20749;-71
2021/04/30 05:06:58;;;;;;;4.05;3.65;;;;;;;;;;3572263;40;20388;-71
2021/04/30 05:09:27;;;;;;;4.22;3.70;;;;;;;;;;3576691;40;20399;-71
2021/04/30 05:11:53;;;;;;;4.07;3.70;;;;;;;;;;3577101;40;20387;-71
2021/04/30 05:14:20;;;;;;;4.38;3.97;;;;;;;;;;3576737;40;20375;-71
2021/04/30 05:16:46;;;;;;;4.22;3.67;;;;;;;;;;3576849;40;20365;-71
2021/04/30 05:19:12;;;;;;;3.97;3.58;;;;;;;;;;3576089;40;20738;-71
2021/04/30 05:21:46;;;;;;;3.88;3.30;;;;;;;;;;3569581;40;20396;-72
2021/04/30 05:24:12;;;;;;;3.85;3.20;;;;;;;;;;3570418;40;20381;-72
2021/04/30 05:26:38;;;;;;;4.15;3.35;;;;;;;;;;3574281;40;20371;-71
2021/04/30 05:29:05;;;;;;;3.15;2.78;;;;;;;;;;3577169;40;20360;-71
2021/04/30 05:31:31;;;;;;;3.00;2.80;;;;;;;;;;3575907;40;20653;-71
2021/04/30 05:33:57;;;;;;;5.18;2.95;;;;;;;;;;3575700;40;20399;-71
2021/04/30 05:36:23;;;;;;;2.83;2.60;;;;;;;;;;3571694;40;20385;-71
2021/04/30 05:38:51;;;;;;;4.30;3.58;;;;;;;;;;3571989;40;20462;-71
2021/04/30 05:41:17;;;;;;;3.67;3.38;;;;;;;;;;3571895;40;20812;-71
2021/04/30 05:43:43;;;;;;;3.92;3.60;;;;;;;;;;3575123;40;20376;-71
2021/04/30 05:46:10;;;;;;;4.07;3.65;;;;;;;;;;3577152;40;20688;-71
2021/04/30 05:48:36;;;;;;;3.38;3.08;;;;;;;;;;3572227;40;20495;-71
2021/04/30 05:51:02;;;;;;;3.50;3.20;;;;;;;;;;3566866;40;20650;-71
2021/04/30 05:53:28;;;;;;;3.92;3.17;;;;;;;;;;3576789;40;20365;-72
2021/04/30 05:55:56;;;;;;;3.80;3.45;;;;;;;;;;3567196;40;20396;-71
2021/04/30 05:58:22;;;;;;;3.35;2.80;;;;;;;;;;3576997;40;20380;-72
2021/04/30 06:00:48;;;;;;;3.35;3.05;;;;;;;;;;3576609;40;20446;-71
2021/04/30 06:03:14;;;;;;;4.50;3.30;;;;;;;;;;3562150;40;20405;-72
2021/04/30 06:05:40;;;;;;;3.70;3.40;;;;;;;;;;3567321;40;20396;-71
2021/04/30 06:08:07;;;;;;;3.30;3.00;;;;;;;;;;3561823;40;20427;-71
2021/04/30 06:10:34;;;;;;;4.13;3.78;;;;;;;;;;3576317;40;20640;-71
2021/04/30 06:13:04;;;;;;;3.90;3.50;;;;;;;;;;3577036;40;20364;-71
2021/04/30 06:15:30;;;;;;;3.67;3.38;;;;;;;;;;3576815;40;20704;-71
2021/04/30 06:17:56;;;;;;;3.70;3.40;;;;;;;;;;3576038;40;20399;-71
2021/04/30 06:20:22;;;;;;;4.07;3.50;;;;;;;;;;3573401;40;20366;-71
2021/04/30 06:22:48;;;;;;;7.60;6.80;;;;;;;;;;3565395;40;20796;-71
2021/04/30 06:25:15;;;;;;;4.65;4.25;;;;;;;;;;3573301;40;20392;-71
2021/04/30 06:27:41;;;;;;;5.53;4.40;;;;;;;;;;3566417;40;20400;-71
2021/04/30 06:30:09;;;;;;;4.80;4.30;;;;;;;;;;3572447;40;20488;-75
2021/04/30 06:32:38;;;;;;;4.72;4.22;;;;;;;;;;3576453;40;20372;-75
2021/04/30 06:35:04;;;;;;;4.65;4.25;;;;;;;;;;3576151;40;20372;-75
2021/04/30 06:37:31;;;;;;;5.00;4.50;;;;;;;;;;3571553;40;20845;-74
2021/04/30 06:39:57;;;;;;;4.97;4.47;;;;;;;;;;3563376;40;20418;-74
2021/04/30 06:42:24;;;;;;;4.95;4.45;;;;;;;;;;3575652;40;20428;-74
2021/04/30 06:44:52;;;;;;;5.13;4.72;;;;;;;;;;3572965;40;20388;-74
2021/04/30 06:47:19;;;;;;;6.67;4.93;;;12.00;99.90;;;;;;3566202;40;20419;-74
2021/04/30 06:49:45;;;;;;;5.55;4.88;;;12.20;99.90;;;;;;3569787;40;20763;-72
2021/04/30 06:52:11;;;;;;;6.18;4.97;;;12.20;99.90;;;;;;3575091;40;20375;-72
2021/04/30 06:54:37;;;;;;;4.90;4.38;;;;;;;;;;3566481;40;20403;-72
2021/04/30 06:57:03;;;;;;;4.75;3.63;;;;;;;;;;3570322;40;20397;-72
2021/04/30 06:59:30;;;;;;;4.35;3.50;;;;;;;;;;3570085;40;20376;-73
2021/04/30 07:01:56;;;;;;;4.70;3.28;;;;;;;;;;3570584;40;20642;-72
2021/04/30 07:04:23;;;;;;;3.45;2.85;;;;;;;;;;3576137;40;20404;-72
2021/04/30 07:06:49;;;;;;;3.17;2.87;;;;;;;;;;3559265;40;20494;-73
2021/04/30 07:09:16;;;;;;;4.13;3.22;;;;;;;;;;3568360;40;20717;-73
2021/04/30 07:11:42;;;;;;;3.60;2.90;;;;;;;;;;3571561;40;20378;-72
2021/04/30 07:14:08;;;;;;;4.20;3.05;;;;;;;;;;3570655;40;20397;-72
2021/04/30 07:16:35;;;;;;;3.85;3.00;;;;;;;;;;3576406;40;20396;-72
2021/04/30 07:19:01;;;;;;;3.33;3.03;;;;;;;;;;3573348;40;20392;-72
2021/04/30 07:21:28;;;;;;;2.92;2.63;;;;;;;;;;3574697;40;20768;-72
2021/04/30 07:23:54;;;;;;;2.95;2.40;;;;;;;;;;3575681;40;20392;-72
2021/04/30 07:26:20;;;;;;;3.30;2.67;;;;;;;;;;3575226;40;20428;-71
2021/04/30 07:28:47;;;;;;;3.20;2.83;;;;;;;;;;3564542;40;20400;-72
2021/04/30 07:31:13;;;;;;;3.15;2.80;;;;;;;;;;3573718;40;20389;-75
2021/04/30 07:33:46;;;;;;;3.00;2.70;;;;;;;;;;3571474;40;20393;-75
2021/04/30 07:36:12;;;;;;;3.63;2.95;;;;;;;;;;3574058;40;20446;-74
2021/04/30 07:38:39;;;;;;;4.10;2.97;;;;;;;;;;3576229;40;20372;-74
2021/04/30 07:41:05;;;;;;;4.57;3.50;;;;;;;;;;3576087;40;20383;-74
2021/04/30 07:43:32;;;;;;;5.15;4.00;;;;;;;;;;3565831;40;20785;-75
2021/04/30 07:45:59;;;;;;;6.40;4.72;;;;;;;;;;3575231;40;20383;-74
2021/04/30 07:48:25;;;;;;;7.37;4.77;;;;;;;;;;3574827;40;20440;-74
2021/04/30 07:50:52;;;;;;;9.13;6.07;;;;;;;;;;3575918;40;20770;-74
2021/04/30 07:53:18;;;;;;;9.13;6.38;;;;;;;;;;3575539;40;20368;-74
2021/04/30 07:55:45;;;;;;;10.45;7.15;;;;;;;;;;3575418;40;20838;-74
2021/04/30 07:58:11;;;;;;;12.10;7.80;;;;;;;;;;3564514;40;20405;-74
2021/04/30 08:00:37;;;;;;;11.18;7.43;;;;;;;;;;3574419;40;20384;-74
2021/04/30 08:03:04;;;;;;;10.98;8.13;;;;;;;;;;3577338;40;20403;-72
2021/04/30 08:05:30;;;;;;;11.32;7.72;;;;;;;;;;3576420;40;20513;-71
2021/04/30 08:08:00;;;;;;;12.05;7.65;;;;;;;;;;3576394;40;20406;-72
2021/04/30 08:10:26;;;;;;;10.57;7.43;;;;;;;;;;3576627;40;20379;-72
2021/04/30 08:12:53;;;;;;;7.75;6.00;;;;;;;;;;3567909;40;20411;-72
2021/04/30 08:15:21;;;;;;;7.70;5.53;;;;;;;;;;3561964;40;20405;-71
2021/04/30 08:17:47;;;;;;;6.82;5.45;;;;;;;;;;3564738;40;20723;-72
2021/04/30 08:20:14;;;;;;;6.07;4.50;;;;;;;;;;3568073;40;20396;-72
2021/04/30 08:22:40;;;;;;;6.00;4.53;;;;;;;;;;3569909;40;20379;-72
2021/04/30 08:25:07;;;;;;;7.55;5.45;;;;;;;;;;3565433;40;20420;-72
2021/04/30 08:27:33;;;;;;;8.75;6.18;;;;;;;;;;3560910;40;20642;-72
2021/04/30 08:30:00;;;;;;;8.82;5.65;;;;;;;;;;3566306;40;20406;-72
2021/04/30 08:32:27;;;;;;;9.15;6.63;;;;;;;;;;3575589;40;20481;-72
2021/04/30 08:34:54;;;;;;;8.43;6.25;;;;;;;;;;3565624;40;20397;-72
2021/04/30 08:37:20;;;;;;;8.68;6.80;;;;;;;;;;3563505;40;20394;-72
2021/04/30 08:39:46;;;;;;;8.32;6.72;;;;;;;;;;3576193;40;20376;-72
2021/04/30 08:42:12;;;;;;;7.75;5.57;;;;;;;;;;3573849;40;20399;-72
2021/04/30 08:44:39;;;;;;;7.68;5.75;;;;;;;;;;3577399;40;20384;-71
2021/04/30 08:47:07;;;;;;;8.27;6.00;;;;;;;;;;3575025;40;20415;-71
2021/04/30 08:49:33;;;;;;;8.52;6.30;;;;;;;;;;3577382;40;20769;-72
2021/04/30 08:51:59;;;;;;;8.07;5.90;;;14.20;99.90;;;;;;3576935;40;20368;-72
2021/04/30 08:54:25;;;;;;;7.78;5.70;;;;;;;;;;3577282;40;20376;-73
2021/04/30 08:56:57;;;;;;;6.13;5.05;;;;;;;;;;3566932;40;20396;-72
2021/04/30 08:59:25;;;;;;;5.50;4.57;;;13.70;99.90;;;;;;3570836;40;20370;-73
2021/04/30 09:01:51;;;;;;;6.95;5.80;;;;;;;;;;3570820;40;20512;-73
2021/04/30 09:04:18;;;;;;;7.77;5.97;;;;;;;;;;3565486;40;20802;-73
2021/04/30 09:06:45;;;;;;;10.68;7.43;;;;;;;;;;3577313;40;20645;-73
2021/04/30 09:09:12;;;;;;;14.65;13.27;;;;;;;;;;3570297;40;20364;-73
2021/04/30 09:11:39;;;;;;;8.68;7.78;;;;;;;;;;3573401;40;20462;-73
2021/04/30 09:14:19;;;;;;;10.65;9.65;;;;;;;;;;3574474;40;20366;-73
2021/04/30 09:17:02;;;;;;;6.10;5.50;;;;;;;;;;3571906;40;20380;-73
2021/04/30 09:19:34;;;;;;;4.85;4.45;;;;;;;;;;3565432;40;20475;-71
2021/04/30 09:22:01;;;;;;;5.65;4.95;;;;;;;;;;3569706;40;20393;-72
2021/04/30 09:24:27;;;;;;;6.10;4.90;;;;;;;;;;3568921;40;20789;-72
2021/04/30 09:26:54;;;;;;;6.40;5.07;;;;;;;;;;3562601;40;20485;-72
2021/04/30 09:29:21;;;;;;;5.65;5.15;;;;;;;;;;3576996;40;20368;-72
2021/04/30 09:31:48;;;;;;;5.18;4.68;;;;;;;;;;3575555;40;20372;-72
2021/04/30 09:34:19;;;;;;;6.43;5.80;;;;;;;;;;3571318;40;20493;-72
2021/04/30 09:37:00;;;;;;;8.18;7.47;;;;;;;;;;3573605;40;20370;-72
2021/04/30 09:39:27;;;;;;;5.55;4.95;;;;;;;;;;3574075;40;20727;-72
2021/04/30 09:42:07;;;;;;;5.80;4.77;;;;;;;;;;3576920;40;20475;-72
2021/04/30 09:44:34;;;;;;;4.40;4.00;;;;;;;;;;3575419;40;20416;-72
2021/04/30 09:47:11;;;;;;;3.33;3.03;;;;;;;;;;3574320;40;20392;-72
2021/04/30 09:49:38;;;;;;;2.57;2.37;;;;;;;;;;3577177;40;20368;-72
2021/04/30 09:52:07;;;;;;;2.60;2.40;;;;;;;;;;3571329;40;20380;-72
2021/04/30 09:54:34;;;;;;;3.30;3.00;;;;;;;;;;3572050;40;20745;-73
2021/04/30 09:57:04;;;;;;;4.22;3.90;;;;;;;;;;3575023;40;20663;-73
2021/04/30 09:59:31;;;;;;;5.40;4.90;;;;;;;;;;3575290;40;20767;-73
2021/04/30 10:02:07;;;;;;;5.10;4.60;;;;;;;;;;3576025;40;20383;-73
2021/04/30 10:04:34;;;;;;;4.53;4.13;;;;;;;;;;3565498;40;20442;-74
2021/04/30 10:07:01;;;;;;;5.65;4.30;;;;;;;;;;3565478;40;20807;-73
2021/04/30 10:09:29;;;;;;;4.55;4.15;;;;;;;;;;3566575;40;20763;-74
2021/04/30 10:11:55;;;;;;;3.85;3.55;;;;;;;;;;3560854;40;20383;-73
2021/04/30 10:14:23;;;;;;;3.92;3.63;;;;;;;;;;3560067;40;20398;-74
2021/04/30 10:16:50;;;;;;;4.43;4.03;;;;;;;;;;3566002;40;20674;-75
2021/04/30 10:19:16;;;;;;;4.00;3.70;;;;;;;;;;3564841;40;20374;-74
2021/04/30 10:21:44;;;;;;;4.55;4.22;;;;;;;;;;3566133;40;20382;-73
2021/04/30 10:24:13;;;;;;;4.43;4.03;;;;;;;;;;3564236;40;20434;-74
2021/04/30 10:26:40;;;;;;;3.97;3.58;;;;;;;;;;3564750;40;20624;-73
2021/04/30 10:29:08;;;;;;;3.88;3.47;;;;;;;;;;3551106;40;20410;-74
2021/04/30 10:31:36;;;;;;;4.05;3.65;;;;;;;;;;3564083;40;20487;-72
2021/04/30 10:34:06;;;;;;;3.42;3.13;;;;;;;;;;3566291;40;20419;-73
2021/04/30 10:36:34;;;;;;;4.68;4.00;;;;;;;;;;3563890;40;20421;-72
2021/04/30 10:39:01;;;;;;;5.03;4.63;;;;;;;;;;3566521;40;20385;-73
2021/04/30 10:41:28;;;;;;;5.00;4.60;;;;;;;;;;3550296;40;20418;-73
2021/04/30 10:44:12;;;;;;;5.63;4.20;;;;;;;;;;3551857;40;20498;-73
2021/04/30 10:46:38;;;;;;;3.83;3.53;;;;;;;;;;3565830;40;20374;-74
2021/04/30 10:49:17;;;;;;;3.65;3.35;;;;;;;;;;3555573;40;20789;-72
2021/04/30 10:51:43;;;;;;;4.00;3.70;;;;;;;;;;3555105;40;20757;-73
2021/04/30 10:54:26;;;;;;;3.35;3.05;;;;;;;;;;3561808;40;20432;-73
2021/04/30 10:56:58;;;;;;;3.60;3.30;;;;;;;;;;3562988;40;20407;-74
2021/04/30 10:59:29;;;;;;;3.50;3.20;;;;;;;;;;3557205;40;20383;-72
2021/04/30 11:02:02;;;;;;;3.78;3.45;;;;;;;;;;3554135;40;20409;-73
2021/04/30 11:04:29;;;;;;;3.95;3.60;;;;;;;;;;3541971;40;20836;-72
2021/04/30 11:06:55;;;;;;;4.27;3.97;;;;;;;;;;3552567;40;20499;-74
2021/04/30 11:09:34;;;;;;;3.85;3.55;;;;;;;;;;3543738;40;20427;-73
2021/04/30 11:12:02;;;;;;;4.90;4.50;;;;;;;;;;3544214;40;20843;-73
2021/04/30 11:14:34;;;;;;;4.63;4.22;;;;;;;;;;3546699;40;20493;-74
2021/04/30 11:17:01;;;;;;;4.30;3.90;;;;;;;;;;3551914;40;20416;-74
2021/04/30 11:19:28;;;;;;;3.92;3.63;;;;;;;;;;3552263;40;20864;-74
2021/04/30 11:21:55;;;;;;;5.13;4.13;;;;;;;;;;3547901;40;20387;-77
2021/04/30 11:24:31;;;;;;;4.20;3.80;;;;;;;;;;3551279;40;20403;-72
2021/04/30 11:27:24;;;;;;;4.47;3.92;;;;;;;;;;3549707;40;20478;-73
2021/04/30 11:29:52;;;;;;;4.97;4.57;;;;;;;;;;3544090;40;20393;-73
2021/04/30 11:32:20;;;;;;;4.90;4.50;;;;;;;;;;3536817;40;20420;-74
2021/04/30 11:34:50;;;;;;;9.35;5.25;;;;;;;;;;3550442;40;20773;-73
2021/04/30 11:37:17;;;;;;;4.68;4.30;;;;;;;;;;3575065;40;20408;-73
2021/04/30 11:39:43;;;;;;;4.85;4.38;;;;;;;;;;3575547;40;20402;-73
2021/04/30 11:42:12;;;;;;;4.25;3.95;;;;;;;;;;3573164;40;20397;-74
2021/04/30 11:44:39;;;;;;;4.03;3.70;;;;;;;;;;3566706;40;20781;-73
2021/04/30 11:47:06;;;;;;;5.00;4.10;;;;;;;;;;3565873;40;20411;-73
2021/04/30 11:49:33;;;;;;;6.32;5.82;;;;;;;;;;3572960;40;20737;-73
2021/04/30 11:52:00;;;;;;;3.70;3.40;;;;;;;;;;3575447;40;20368;-73
2021/04/30 11:54:27;;;;;;;5.20;4.32;;;;;;;;;;3572607;40;20401;-73
2021/04/30 11:56:58;;;;;;;5.10;4.65;;;;;;;;;;3573267;40;20395;-74
2021/04/30 11:59:25;;;;;;;5.07;4.67;;;;;;;;;;3570277;40;20384;-74
2021/04/30 12:01:58;;;;;;;4.00;3.70;;;;;;;;;;3571365;40;20389;-73
2021/04/30 12:04:38;;;;;;;4.82;4.07;;;;;;;;;;3571141;40;20450;-73
2021/04/30 12:07:05;;;;;;;3.92;3.63;;;;;;;;;;3573576;40;20442;-72
2021/04/30 12:09:31;;;;;;;3.70;3.40;;;;;;;;;;3572912;40;20749;-73
2021/04/30 12:12:09;;;;;;;4.53;4.13;;;;;;;;;;3566505;40;20790;-73
2021/04/30 12:14:42;;;;;;;3.92;3.63;;;;;;;;;;3571916;40;20395;-72
2021/04/30 12:17:08;;;;;;;4.18;3.88;;;;;;;;;;3573509;40;20388;-73
2021/04/30 12:19:35;;;;;;;3.60;3.28;;;;;;;;;;3566577;40;20712;-74
2021/04/30 12:22:16;;;;;;;4.63;3.87;;;;;;;;;;3563164;40;20620;-73
2021/04/30 12:24:42;;;;;;;5.63;5.13;;;;;;;;;;3572432;40;20479;-72
2021/04/30 12:27:08;;;;;;;4.30;4.00;;;;;;;;;;3572118;40;20415;-74
2021/04/30 12:29:35;;;;;;;4.35;3.97;;;;;;;;;;3573235;40;20404;-74
2021/04/30 12:32:01;;;;;;;4.20;3.80;;;;;;;;;;3571842;40;20797;-73
2021/04/30 12:34:27;;;;;;;3.75;3.45;;;;;;;;;;3572714;40;20397;-75
2021/04/30 12:36:54;;;;;;;3.70;3.00;;;;;;;;;;3570098;40;20416;-75
2021/04/30 12:39:27;;;;;;;3.38;3.13;;;;;;;;;;3565673;40;20489;-74
2021/04/30 12:41:53;;;;;;;2.83;2.63;;;;;;;;;;3571601;40;20765;-74
2021/04/30 12:44:19;;;;;;;2.00;1.90;;;;;;;;;;3573173;40;20506;-73
2021/04/30 12:46:46;;;;;;;2.95;2.58;;;;;;;;;;3562923;40;20418;-72
2021/04/30 12:49:13;;;;;;;1.95;1.70;;;;;;;;;;3571431;40;20395;-73
2021/04/30 12:51:41;;;;;;;2.85;2.40;;;;;;;;;;3572137;40;20460;-72
2021/04/30 12:54:07;;;;;;;2.55;2.30;;;;;;;;;;3572576;40;20470;-72
2021/04/30 12:56:34;;;;;;;2.33;2.10;;;;;;;;;;3571466;40;20440;-73
2021/04/30 12:59:05;;;;;;;2.40;2.20;;;;;;;;;;3571297;40;20447;-72
2021/04/30 13:01:31;;;;;;;2.60;2.40;;;;;;;;;;3571469;40;20783;-72
2021/04/30 13:03:57;;;;;;;1.90;1.80;;;;;;;;;;3571859;40;20432;-73
2021/04/30 13:06:24;;;;;;;2.50;2.00;;;;;;;;;;3570827;40;20482;-72
2021/04/30 13:08:50;;;;;;;3.20;2.38;;;;;;;;;;3572684;40;20372;-73
2021/04/30 13:11:18;;;;;;;2.42;2.22;;;;;;;;;;3572316;40;20385;-74
2021/04/30 13:14:02;;;;;;;2.90;2.70;;;;;;;;;;3571677;40;20370;-73
2021/04/30 13:16:35;;;;;;;2.70;2.50;;;;;;;;;;3571330;40;20403;-74
2021/04/30 13:19:05;;;;;;;3.15;2.50;;;;;;;;;;3572888;40;20485;-72
2021/04/30 13:21:32;;;;;;;3.55;2.83;;;;;;;;;;3570523;40;20382;-73
2021/04/30 13:24:09;;;;;;;3.00;2.22;;;;;;;;;;3572077;40;20494;-73
2021/04/30 13:26:35;;;;;;;2.90;2.70;;;;;;;;;;3572533;40;20905;-73
2021/04/30 13:29:13;;;;;;;4.13;3.08;;;;;;;;;;3566357;40;20415;-73
2021/04/30 13:31:39;;;;;;;3.22;2.50;;;;;;;;;;3571432;40;20442;-73
2021/04/30 13:34:07;;;;;;;2.65;2.45;;;;;;;;;;3570486;40;20396;-72
2021/04/30 13:36:33;;;;;;;2.72;2.53;;;;;;;;;;3572720;40;20475;-73
2021/04/30 13:39:00;;;;;;;2.75;2.55;;;;;;;;;;3572729;40;20398;-72
2021/04/30 13:41:35;;;;;;;2.75;2.55;;;;;;;;;;3572409;40;20378;-73
2021/04/30 13:44:15;;;;;;;3.90;3.25;;;;;;;;;;3549183;40;20428;-72
2021/04/30 13:46:47;;;;;;;3.50;3.08;;;;;;;;;;3553220;40;20650;-75
2021/04/30 13:49:13;;;;;;;3.65;3.25;;;;;;;;;;3549296;40;20389;-74
2021/04/30 13:51:40;;;;;;;3.03;2.75;;;;;;;;;;3550585;40;20400;-75
2021/04/30 13:54:06;;;;;;;3.40;3.08;;;;;;;;;;3552519;40;20417;-74
2021/04/30 13:56:33;;;;;;;3.03;2.70;;;;;;;;;;3549512;40;20795;-74
2021/04/30 13:59:03;;;;;;;2.90;2.60;;;;;;;;;;3546990;40;20415;-74
2021/04/30 14:01:31;;;;;;;2.75;2.40;;;;;;;;;;3551518;40;20385;-74
2021/04/30 14:03:57;;;;;;;3.25;2.95;;;;;;;;;;3551061;40;20532;-76
2021/04/30 14:06:23;;;;;;;2.67;2.30;;;;;;;;;;3551949;40;20827;-75
2021/04/30 14:08:50;;;;;;;2.65;2.45;;;;;;;;;;3550818;40;20413;-75
2021/04/30 14:11:16;;;;;;;2.92;2.72;;;;;;;;;;3552112;40;20388;-74
2021/04/30 14:13:42;;;;;;;3.63;2.97;;;;;;;;;;3552174;40;20473;-75
2021/04/30 14:16:08;;;;;;;3.85;3.45;;;;;;;;;;3569047;40;20392;-74
2021/04/30 14:18:35;;;;;;;4.50;3.22;;;;;;;;;;3565378;40;20823;-73
2021/04/30 14:21:02;;;;;;;5.63;4.53;;;;;;;;;;3571976;40;20435;-74
2021/04/30 14:23:28;;;;;;;3.93;3.60;;;;;;;;;;3565812;40;20488;-74
2021/04/30 14:25:54;;;;;;;4.05;2.85;;;;;;;;;;3564910;40;20417;-74
2021/04/30 14:28:20;;;;;;;3.83;3.10;;;;;;;;;;3562109;40;20504;-74
2021/04/30 14:30:46;;;;;;;4.93;4.43;;;;;;;;;;3564687;40;20489;-76
2021/04/30 14:33:13;;;;;;;4.30;3.90;;;;;;;;;;3564518;40;20400;-74
2021/04/30 14:35:40;;;;;;;3.72;3.42;;;;;;;;;;3571020;40;20409;-73
2021/04/30 14:38:06;;;;;;;3.78;3.47;;;;;;;;;;3572082;40;20670;-74
2021/04/30 14:40:32;;;;;;;5.20;4.43;;;;;;;;;;3572900;40;20388;-74
2021/04/30 14:42:58;;;;;;;4.33;3.90;;;;;;;;;;3572901;40;20705;-74